createdAt,value
2018-02-07T00:01:27.045Z,72.4
2018-02-07T00:11:27.114Z,74.2
2018-02-07T00:21:27.669Z,83.2
2018-02-07T00:31:26.850Z,85.3
2018-02-07T00:41:26.443Z,76.4
2018-02-07T00:51:27.567Z,75.1
2018-02-07T01:01:28.090Z,100.4
2018-02-07T01:11:26.675Z,100.4
2018-02-07T01:21:26.497Z,113.6
2018-02-07T01:31:27.109Z,114.7
2018-02-07T01:41:26.901Z,90.8
2018-02-07T01:51:26.707Z,76.3
2018-02-07T02:01:27.307Z,64.7
2018-02-07T02:11:27.855Z,97.2
2018-02-07T02:21:26.568Z,89.5
2018-02-07T02:31:28.761Z,92.9
2018-02-07T02:41:26.858Z,90.1
2018-02-07T02:51:26.422Z,93.1
2018-02-07T03:01:27.171Z,87.4
2018-02-07T03:11:26.806Z,94.0
2018-02-07T03:21:26.656Z,88.0
2018-02-07T03:31:28.192Z,88.5
2018-02-07T03:41:27.672Z,75.7
2018-02-07T03:51:26.830Z,75.4
2018-02-07T04:01:27.260Z,70.1
2018-02-07T04:11:28.122Z,80.8
2018-02-07T04:21:26.881Z,86.9
2018-02-07T04:31:27.234Z,78.0
2018-02-07T04:41:28.444Z,67.4
2018-02-07T04:51:27.031Z,61.5
2018-02-07T05:01:26.575Z,61.5
2018-02-07T05:11:27.379Z,69.0
2018-02-07T05:21:27.378Z,54.8
2018-02-07T05:31:28.134Z,53.7
2018-02-07T05:41:26.482Z,58.1
2018-02-07T05:51:27.993Z,64.0
2018-02-07T06:01:26.806Z,68.8
2018-02-07T06:11:26.457Z,67.2
2018-02-07T06:21:27.613Z,66.3
2018-02-07T06:31:27.090Z,63.2
2018-02-07T06:41:26.870Z,70.5
2018-02-07T06:51:27.211Z,70.7
2018-02-07T07:01:27.786Z,75.2
2018-02-07T07:11:27.231Z,57.7
2018-02-07T07:21:27.450Z,57.4
2018-02-07T07:31:28.001Z,67.0
2018-02-07T07:41:27.508Z,69.2
2018-02-07T07:51:26.328Z,75.5
2018-02-07T08:01:26.743Z,76.3
2018-02-07T08:11:27.760Z,74.3
2018-02-07T08:21:27.518Z,84.7
2018-02-07T08:31:27.885Z,79.6
2018-02-07T08:41:26.651Z,73.1
2018-02-07T08:51:27.213Z,78.2
2018-02-07T09:01:27.213Z,72.0
2018-02-07T09:11:27.434Z,72.4
2018-02-07T09:21:29.731Z,73.1
2018-02-07T09:31:26.440Z,75.4
2018-02-07T09:41:26.934Z,81.9
2018-02-07T09:51:26.428Z,76.2
2018-02-07T10:01:27.444Z,71.6
2018-02-07T10:11:27.961Z,74.4
2018-02-07T10:21:26.666Z,87.5
2018-02-07T10:31:27.192Z,96.2
2018-02-07T10:41:27.409Z,92.6
2018-02-07T10:51:27.060Z,91.0
2018-02-07T11:01:26.499Z,102.6
2018-02-07T11:11:28.422Z,99.6
2018-02-07T11:21:27.177Z,81.3
2018-02-07T11:31:26.571Z,85.7
2018-02-07T11:41:27.677Z,84.2
2018-02-07T11:51:27.024Z,90.9
2018-02-07T12:01:27.704Z,94.2
2018-02-07T12:11:27.230Z,88.3
2018-02-07T12:21:27.008Z,89.0
2018-02-07T12:31:26.374Z,90.1
2018-02-07T12:41:28.949Z,89.2
2018-02-07T12:51:26.527Z,77.4
2018-02-07T13:01:27.339Z,90.7
2018-02-07T13:11:26.710Z,84.2
2018-02-07T13:21:28.896Z,81.1
2018-02-07T13:31:26.920Z,100.8
2018-02-07T13:41:26.484Z,98.0
2018-02-07T13:51:28.797Z,123.7
2018-02-07T14:01:27.017Z,105.8
2018-02-07T14:11:26.773Z,111.6
2018-02-07T14:21:26.723Z,111.2
2018-02-07T14:31:26.421Z,133.9
2018-02-07T14:41:27.541Z,120.4
2018-02-07T14:51:28.935Z,108.0
2018-02-07T15:01:26.772Z,103.8
2018-02-07T15:11:27.805Z,120.9
2018-02-07T15:21:26.621Z,118.2
2018-02-07T15:31:27.163Z,125.6
2018-02-07T15:41:27.836Z,104.0
2018-02-07T15:51:29.566Z,117.4
2018-02-07T16:01:28.198Z,105.9
2018-02-07T16:11:28.729Z,108.8
2018-02-07T16:21:26.708Z,121.0
2018-02-07T16:31:27.154Z,119.8
2018-02-07T16:41:26.794Z,122.0
2018-02-07T16:51:27.606Z,122.9
2018-02-07T17:01:27.583Z,151.2
2018-02-07T17:11:27.057Z,135.0
2018-02-07T17:21:27.455Z,137.0
2018-02-07T17:31:27.390Z,130.3
2018-02-07T17:41:26.882Z,138.8
2018-02-07T17:51:26.523Z,131.9
2018-02-07T18:01:27.506Z,122.3
2018-02-07T18:11:27.275Z,112.5
2018-02-07T18:21:27.141Z,103.9
2018-02-07T18:31:26.752Z,116.5
2018-02-07T18:41:26.798Z,114.0
2018-02-07T18:51:26.368Z,115.4
2018-02-07T19:01:27.338Z,113.0
2018-02-07T19:11:27.293Z,112.8
2018-02-07T19:21:27.338Z,90.4
2018-02-07T19:31:27.800Z,102.2
2018-02-07T19:41:26.724Z,95.2
2018-02-07T19:51:27.791Z,84.7
2018-02-07T20:01:26.815Z,85.9
2018-02-07T20:11:26.421Z,95.1
2018-02-07T20:21:27.144Z,89.0
2018-02-07T20:31:28.387Z,89.2
2018-02-07T20:41:26.883Z,92.6
2018-02-07T20:51:27.748Z,83.7
2018-02-07T21:01:26.590Z,93.1
2018-02-07T21:11:27.477Z,88.8
2018-02-07T21:21:27.201Z,95.7
2018-02-07T21:31:27.100Z,105.3
2018-02-07T21:41:26.617Z,90.2
2018-02-07T21:51:27.563Z,96.9
2018-02-07T22:01:27.772Z,92.1
2018-02-07T22:11:26.943Z,92.4
2018-02-07T22:21:27.192Z,93.5
2018-02-07T22:31:26.888Z,90.4
2018-02-07T22:41:26.375Z,96.5
2018-02-07T22:51:27.496Z,101.1
2018-02-07T23:01:27.044Z,99.2
2018-02-07T23:11:27.530Z,93.0
2018-02-07T23:21:27.255Z,92.1
2018-02-07T23:31:26.752Z,89.3
2018-02-07T23:41:26.681Z,88.6
2018-02-07T23:51:27.348Z,103.8
